sensor_id;sensor_type;location;lat;lon;timestamp;temperature;humidity
67147;DHT22;54061;52.036;5.558;2022-10-28T00:03:41;15.60;99.90
67147;DHT22;54061;52.036;5.558;2022-10-28T00:06:13;15.60;99.90
67147;DHT22;54061;52.036;5.558;2022-10-28T00:08:39;15.60;99.90
67147;DHT22;54061;52.036;5.558;2022-10-28T00:11:07;15.60;99.90
67147;DHT22;54061;52.036;5.558;2022-10-28T00:13:34;15.60;99.90
67147;DHT22;54061;52.036;5.558;2022-10-28T00:16:04;15.60;99.90
67147;DHT22;54061;52.036;5.558;2022-10-28T00:18:30;15.50;99.90
67147;DHT22;54061;52.036;5.558;2022-10-28T00:21:07;15.50;99.90
67147;DHT22;54061;52.036;5.558;2022-10-28T00:23:33;15.50;99.90
67147;DHT22;54061;52.036;5.558;2022-10-28T00:26:09;15.40;99.90
67147;DHT22;54061;52.036;5.558;2022-10-28T00:28:39;15.40;99.90
67147;DHT22;54061;52.036;5.558;2022-10-28T00:31:07;15.40;99.90
67147;DHT22;54061;52.036;5.558;2022-10-28T00:33:33;15.40;99.90
67147;DHT22;54061;52.036;5.558;2022-10-28T00:38:42;15.30;99.90
67147;DHT22;54061;52.036;5.558;2022-10-28T00:41:09;15.30;99.90
67147;DHT22;54061;52.036;5.558;2022-10-28T00:43:47;15.40;99.90
67147;DHT22;54061;52.036;5.558;2022-10-28T00:46:42;15.30;99.90
67147;DHT22;54061;52.036;5.558;2022-10-28T00:49:22;15.40;99.90
67147;DHT22;54061;52.036;5.558;2022-10-28T00:51:56;15.30;99.90
67147;DHT22;54061;52.036;5.558;2022-10-28T00:54:22;15.30;99.90
67147;DHT22;54061;52.036;5.558;2022-10-28T00:56:51;15.30;99.90
67147;DHT22;54061;52.036;5.558;2022-10-28T00:59:25;15.30;99.90
67147;DHT22;54061;52.036;5.558;2022-10-28T01:01:51;15.20;99.90
67147;DHT22;54061;52.036;5.558;2022-10-28T01:04:17;15.20;99.90
67147;DHT22;54061;52.036;5.558;2022-10-28T01:06:43;15.30;99.90
67147;DHT22;54061;52.036;5.558;2022-10-28T01:09:10;15.30;99.90
67147;DHT22;54061;52.036;5.558;2022-10-28T01:11:59;15.30;99.90
67147;DHT22;54061;52.036;5.558;2022-10-28T01:17:45;15.30;99.90
67147;DHT22;54061;52.036;5.558;2022-10-28T01:20:45;15.30;99.90
67147;DHT22;54061;52.036;5.558;2022-10-28T01:25:59;15.20;99.90
67147;DHT22;54061;52.036;5.558;2022-10-28T01:28:48;15.10;99.90
67147;DHT22;54061;52.036;5.558;2022-10-28T01:31:29;15.10;99.90
67147;DHT22;54061;52.036;5.558;2022-10-28T01:36:58;15.10;99.90
67147;DHT22;54061;52.036;5.558;2022-10-28T01:39:49;15.00;99.90
67147;DHT22;54061;52.036;5.558;2022-10-28T01:45:16;15.00;99.90
67147;DHT22;54061;52.036;5.558;2022-10-28T01:47:49;15.00;99.90
67147;DHT22;54061;52.036;5.558;2022-10-28T01:52:42;15.00;99.90
67147;DHT22;54061;52.036;5.558;2022-10-28T01:55:14;14.90;99.90
67147;DHT22;54061;52.036;5.558;2022-10-28T01:57:42;15.00;99.90
67147;DHT22;54061;52.036;5.558;2022-10-28T02:00:08;14.90;99.90
67147;DHT22;54061;52.036;5.558;2022-10-28T02:02:36;14.90;99.90
67147;DHT22;54061;52.036;5.558;2022-10-28T02:05:49;14.90;99.90
67147;DHT22;54061;52.036;5.558;2022-10-28T02:07:50;14.90;99.90
67147;DHT22;54061;52.036;5.558;2022-10-28T02:10:22;14.80;99.90
67147;DHT22;54061;52.036;5.558;2022-10-28T02:12:53;14.80;99.90
67147;DHT22;54061;52.036;5.558;2022-10-28T02:15:51;14.80;99.90
67147;DHT22;54061;52.036;5.558;2022-10-28T02:18:51;14.80;99.90
67147;DHT22;54061;52.036;5.558;2022-10-28T02:21:50;14.80;99.90
67147;DHT22;54061;52.036;5.558;2022-10-28T02:24:37;14.80;99.90
67147;DHT22;54061;52.036;5.558;2022-10-28T02:27:17;14.80;99.90
67147;DHT22;54061;52.036;5.558;2022-10-28T02:29:52;14.80;99.90
67147;DHT22;54061;52.036;5.558;2022-10-28T02:32:22;14.80;99.90
67147;DHT22;54061;52.036;5.558;2022-10-28T02:34:51;14.70;99.90
67147;DHT22;54061;52.036;5.558;2022-10-28T02:37:27;14.70;99.90
67147;DHT22;54061;52.036;5.558;2022-10-28T02:39:56;14.70;99.90
67147;DHT22;54061;52.036;5.558;2022-10-28T02:42:27;14.70;99.90
67147;DHT22;54061;52.036;5.558;2022-10-28T02:44:58;14.70;99.90
67147;DHT22;54061;52.036;5.558;2022-10-28T02:47:30;14.70;99.90
67147;DHT22;54061;52.036;5.558;2022-10-28T02:50:00;14.70;99.90
67147;DHT22;54061;52.036;5.558;2022-10-28T02:52:29;14.70;99.90
67147;DHT22;54061;52.036;5.558;2022-10-28T02:55:00;14.70;99.90
67147;DHT22;54061;52.036;5.558;2022-10-28T02:57:31;14.70;99.90
67147;DHT22;54061;52.036;5.558;2022-10-28T03:00:00;14.70;99.90
67147;DHT22;54061;52.036;5.558;2022-10-28T03:02:27;14.70;99.90
67147;DHT22;54061;52.036;5.558;2022-10-28T03:04:53;14.70;99.90
67147;DHT22;54061;52.036;5.558;2022-10-28T03:07:19;14.70;99.90
67147;DHT22;54061;52.036;5.558;2022-10-28T03:09:44;14.70;99.90
67147;DHT22;54061;52.036;5.558;2022-10-28T03:12:10;14.70;99.90
67147;DHT22;54061;52.036;5.558;2022-10-28T03:14:36;14.70;99.90
67147;DHT22;54061;52.036;5.558;2022-10-28T03:17:01;14.70;99.90
67147;DHT22;54061;52.036;5.558;2022-10-28T03:19:27;14.70;99.90
67147;DHT22;54061;52.036;5.558;2022-10-28T03:21:53;14.80;99.90
67147;DHT22;54061;52.036;5.558;2022-10-28T03:24:18;14.80;99.90
67147;DHT22;54061;52.036;5.558;2022-10-28T03:26:44;14.80;99.90
67147;DHT22;54061;52.036;5.558;2022-10-28T03:29:09;14.80;99.90
67147;DHT22;54061;52.036;5.558;2022-10-28T03:31:35;14.80;99.90
67147;DHT22;54061;52.036;5.558;2022-10-28T03:34:00;14.80;99.90
67147;DHT22;54061;52.036;5.558;2022-10-28T03:36:26;14.90;99.90
67147;DHT22;54061;52.036;5.558;2022-10-28T03:38:51;14.90;99.90
67147;DHT22;54061;52.036;5.558;2022-10-28T03:41:17;14.90;99.90
67147;DHT22;54061;52.036;5.558;2022-10-28T03:43:43;14.90;99.90
67147;DHT22;54061;52.036;5.558;2022-10-28T03:46:08;14.90;99.90
67147;DHT22;54061;52.036;5.558;2022-10-28T03:48:34;14.90;99.90
67147;DHT22;54061;52.036;5.558;2022-10-28T03:50:59;14.90;99.90
67147;DHT22;54061;52.036;5.558;2022-10-28T03:53:25;14.90;99.90
67147;DHT22;54061;52.036;5.558;2022-10-28T03:55:55;14.80;99.90
67147;DHT22;54061;52.036;5.558;2022-10-28T03:58:21;14.80;99.90
67147;DHT22;54061;52.036;5.558;2022-10-28T04:00:51;14.80;99.90
67147;DHT22;54061;52.036;5.558;2022-10-28T04:03:17;14.80;99.90
67147;DHT22;54061;52.036;5.558;2022-10-28T04:05:44;14.80;99.90
67147;DHT22;54061;52.036;5.558;2022-10-28T04:08:09;14.80;99.90
67147;DHT22;54061;52.036;5.558;2022-10-28T04:10:35;14.80;99.90
67147;DHT22;54061;52.036;5.558;2022-10-28T04:13:02;14.80;99.90
67147;DHT22;54061;52.036;5.558;2022-10-28T04:15:28;14.80;99.90
67147;DHT22;54061;52.036;5.558;2022-10-28T04:17:54;14.80;99.90
67147;DHT22;54061;52.036;5.558;2022-10-28T04:20:19;14.80;99.90
67147;DHT22;54061;52.036;5.558;2022-10-28T04:22:45;14.80;99.90
67147;DHT22;54061;52.036;5.558;2022-10-28T04:25:10;14.70;99.90
67147;DHT22;54061;52.036;5.558;2022-10-28T04:27:36;14.70;99.90
67147;DHT22;54061;52.036;5.558;2022-10-28T04:30:02;14.70;99.90
67147;DHT22;54061;52.036;5.558;2022-10-28T04:32:28;14.70;99.90
67147;DHT22;54061;52.036;5.558;2022-10-28T04:34:53;14.70;99.90
67147;DHT22;54061;52.036;5.558;2022-10-28T04:37:19;14.70;99.90
67147;DHT22;54061;52.036;5.558;2022-10-28T04:39:44;14.70;99.90
67147;DHT22;54061;52.036;5.558;2022-10-28T04:42:10;14.70;99.90
67147;DHT22;54061;52.036;5.558;2022-10-28T04:44:35;14.70;99.90
67147;DHT22;54061;52.036;5.558;2022-10-28T04:47:01;14.70;99.90
67147;DHT22;54061;52.036;5.558;2022-10-28T04:49:26;14.70;99.90
67147;DHT22;54061;52.036;5.558;2022-10-28T04:51:52;14.70;99.90
67147;DHT22;54061;52.036;5.558;2022-10-28T04:54:17;14.70;99.90
67147;DHT22;54061;52.036;5.558;2022-10-28T04:56:43;14.70;99.90
67147;DHT22;54061;52.036;5.558;2022-10-28T04:59:08;14.80;99.90
67147;DHT22;54061;52.036;5.558;2022-10-28T05:01:35;14.80;99.90
67147;DHT22;54061;52.036;5.558;2022-10-28T05:04:00;14.80;99.90
67147;DHT22;54061;52.036;5.558;2022-10-28T05:06:26;14.80;99.90
67147;DHT22;54061;52.036;5.558;2022-10-28T05:08:51;14.80;99.90
67147;DHT22;54061;52.036;5.558;2022-10-28T05:11:17;14.70;99.90
67147;DHT22;54061;52.036;5.558;2022-10-28T05:13:42;14.70;99.90
67147;DHT22;54061;52.036;5.558;2022-10-28T05:16:08;14.70;99.90
67147;DHT22;54061;52.036;5.558;2022-10-28T05:18:34;14.70;99.90
67147;DHT22;54061;52.036;5.558;2022-10-28T05:20:59;14.70;99.90
67147;DHT22;54061;52.036;5.558;2022-10-28T05:23:25;14.70;99.90
67147;DHT22;54061;52.036;5.558;2022-10-28T05:25:50;14.70;99.90
67147;DHT22;54061;52.036;5.558;2022-10-28T05:28:17;14.70;99.90
67147;DHT22;54061;52.036;5.558;2022-10-28T05:30:43;14.70;99.90
67147;DHT22;54061;52.036;5.558;2022-10-28T05:33:09;14.60;99.90
67147;DHT22;54061;52.036;5.558;2022-10-28T05:35:38;14.60;99.90
67147;DHT22;54061;52.036;5.558;2022-10-28T05:38:04;14.60;99.90
67147;DHT22;54061;52.036;5.558;2022-10-28T05:40:30;14.60;99.90
67147;DHT22;54061;52.036;5.558;2022-10-28T05:42:58;14.50;99.90
67147;DHT22;54061;52.036;5.558;2022-10-28T05:45:23;14.60;99.90
67147;DHT22;54061;52.036;5.558;2022-10-28T05:47:49;14.60;99.90
67147;DHT22;54061;52.036;5.558;2022-10-28T05:50:16;14.60;99.90
67147;DHT22;54061;52.036;5.558;2022-10-28T05:55:11;14.60;99.90
67147;DHT22;54061;52.036;5.558;2022-10-28T05:57:37;14.60;99.90
67147;DHT22;54061;52.036;5.558;2022-10-28T06:00:03;14.50;99.90
67147;DHT22;54061;52.036;5.558;2022-10-28T06:02:29;14.50;99.90
67147;DHT22;54061;52.036;5.558;2022-10-28T06:04:55;14.50;99.90
67147;DHT22;54061;52.036;5.558;2022-10-28T06:07:20;14.50;99.90
67147;DHT22;54061;52.036;5.558;2022-10-28T06:09:46;14.50;99.90
67147;DHT22;54061;52.036;5.558;2022-10-28T06:12:11;14.50;99.90
67147;DHT22;54061;52.036;5.558;2022-10-28T06:14:37;14.50;99.90
67147;DHT22;54061;52.036;5.558;2022-10-28T06:17:02;14.40;99.90
67147;DHT22;54061;52.036;5.558;2022-10-28T06:19:28;14.40;99.90
67147;DHT22;54061;52.036;5.558;2022-10-28T06:21:53;14.50;99.90
67147;DHT22;54061;52.036;5.558;2022-10-28T06:24:19;14.40;99.90
67147;DHT22;54061;52.036;5.558;2022-10-28T06:26:44;14.40;99.90
67147;DHT22;54061;52.036;5.558;2022-10-28T06:29:10;14.50;99.90
67147;DHT22;54061;52.036;5.558;2022-10-28T06:31:40;14.40;99.90
67147;DHT22;54061;52.036;5.558;2022-10-28T06:34:07;14.40;99.90
67147;DHT22;54061;52.036;5.558;2022-10-28T06:36:33;14.40;99.90
67147;DHT22;54061;52.036;5.558;2022-10-28T06:38:58;14.40;99.90
67147;DHT22;54061;52.036;5.558;2022-10-28T06:41:24;14.40;99.90
67147;DHT22;54061;52.036;5.558;2022-10-28T06:43:49;14.40;99.90
67147;DHT22;54061;52.036;5.558;2022-10-28T06:46:15;14.40;99.90
67147;DHT22;54061;52.036;5.558;2022-10-28T06:48:40;14.40;99.90
67147;DHT22;54061;52.036;5.558;2022-10-28T06:51:06;14.50;99.90
67147;DHT22;54061;52.036;5.558;2022-10-28T06:53:31;14.50;99.90
67147;DHT22;54061;52.036;5.558;2022-10-28T06:55:57;14.50;99.90
67147;DHT22;54061;52.036;5.558;2022-10-28T06:58:24;14.60;99.90
67147;DHT22;54061;52.036;5.558;2022-10-28T07:00:50;14.70;99.90
67147;DHT22;54061;52.036;5.558;2022-10-28T07:03:16;14.70;99.90
67147;DHT22;54061;52.036;5.558;2022-10-28T07:05:43;14.80;99.90
67147;DHT22;54061;52.036;5.558;2022-10-28T07:08:09;14.90;99.90
67147;DHT22;54061;52.036;5.558;2022-10-28T07:10:35;14.90;99.90
67147;DHT22;54061;52.036;5.558;2022-10-28T07:13:00;15.00;99.90
67147;DHT22;54061;52.036;5.558;2022-10-28T07:15:26;15.00;99.90
67147;DHT22;54061;52.036;5.558;2022-10-28T07:17:53;15.10;99.90
67147;DHT22;54061;52.036;5.558;2022-10-28T07:20:19;15.10;99.90
67147;DHT22;54061;52.036;5.558;2022-10-28T07:22:45;15.10;99.90
67147;DHT22;54061;52.036;5.558;2022-10-28T07:25:10;15.10;99.90
67147;DHT22;54061;52.036;5.558;2022-10-28T07:27:36;15.20;99.90
67147;DHT22;54061;52.036;5.558;2022-10-28T07:30:01;15.20;99.90
67147;DHT22;54061;52.036;5.558;2022-10-28T07:32:31;15.20;99.90
67147;DHT22;54061;52.036;5.558;2022-10-28T07:34:57;15.20;99.90
67147;DHT22;54061;52.036;5.558;2022-10-28T07:37:22;15.20;99.90
67147;DHT22;54061;52.036;5.558;2022-10-28T07:39:48;15.30;99.90
67147;DHT22;54061;52.036;5.558;2022-10-28T07:42:13;15.30;99.90
67147;DHT22;54061;52.036;5.558;2022-10-28T07:44:39;15.30;99.90
67147;DHT22;54061;52.036;5.558;2022-10-28T07:47:05;15.30;99.90
67147;DHT22;54061;52.036;5.558;2022-10-28T07:49:30;15.30;99.90
67147;DHT22;54061;52.036;5.558;2022-10-28T07:51:56;15.40;99.90
67147;DHT22;54061;52.036;5.558;2022-10-28T07:54:21;15.40;99.90
67147;DHT22;54061;52.036;5.558;2022-10-28T07:56:47;15.40;99.90
67147;DHT22;54061;52.036;5.558;2022-10-28T07:59:12;15.40;99.90
67147;DHT22;54061;52.036;5.558;2022-10-28T08:01:38;15.50;99.90
67147;DHT22;54061;52.036;5.558;2022-10-28T08:04:03;15.60;99.90
67147;DHT22;54061;52.036;5.558;2022-10-28T08:06:29;15.70;99.90
67147;DHT22;54061;52.036;5.558;2022-10-28T08:08:55;15.70;99.90
67147;DHT22;54061;52.036;5.558;2022-10-28T08:11:22;15.80;99.90
67147;DHT22;54061;52.036;5.558;2022-10-28T08:13:48;15.90;99.90
67147;DHT22;54061;52.036;5.558;2022-10-28T08:16:14;16.00;99.90
67147;DHT22;54061;52.036;5.558;2022-10-28T08:18:39;16.00;99.90
67147;DHT22;54061;52.036;5.558;2022-10-28T08:21:07;16.10;99.90
67147;DHT22;54061;52.036;5.558;2022-10-28T08:23:33;16.20;99.90
67147;DHT22;54061;52.036;5.558;2022-10-28T08:25:59;16.20;99.90
67147;DHT22;54061;52.036;5.558;2022-10-28T08:28:25;16.30;99.90
67147;DHT22;54061;52.036;5.558;2022-10-28T08:30:51;16.40;99.90
67147;DHT22;54061;52.036;5.558;2022-10-28T08:33:17;16.50;99.90
67147;DHT22;54061;52.036;5.558;2022-10-28T08:35:42;16.60;99.90
67147;DHT22;54061;52.036;5.558;2022-10-28T08:38:13;16.70;99.90
67147;DHT22;54061;52.036;5.558;2022-10-28T08:40:46;17.10;99.90
67147;DHT22;54061;52.036;5.558;2022-10-28T08:43:44;17.50;99.90
67147;DHT22;54061;52.036;5.558;2022-10-28T08:48:50;18.30;99.90
67147;DHT22;54061;52.036;5.558;2022-10-28T08:54:25;18.40;98.20
67147;DHT22;54061;52.036;5.558;2022-10-28T08:56:52;18.40;99.90
67147;DHT22;54061;52.036;5.558;2022-10-28T08:59:25;18.60;99.90
67147;DHT22;54061;52.036;5.558;2022-10-28T09:01:56;19.00;99.90
67147;DHT22;54061;52.036;5.558;2022-10-28T09:04:41;19.50;99.20
67147;DHT22;54061;52.036;5.558;2022-10-28T09:07:13;19.50;92.60
67147;DHT22;54061;52.036;5.558;2022-10-28T09:09:39;19.60;99.30
67147;DHT22;54061;52.036;5.558;2022-10-28T09:12:14;19.80;99.60
67147;DHT22;54061;52.036;5.558;2022-10-28T09:15:27;20.10;95.70
67147;DHT22;54061;52.036;5.558;2022-10-28T09:17:56;20.60;96.30
67147;DHT22;54061;52.036;5.558;2022-10-28T09:20:48;20.80;98.80
67147;DHT22;54061;52.036;5.558;2022-10-28T09:26:25;20.40;92.80
67147;DHT22;54061;52.036;5.558;2022-10-28T09:29:24;20.10;90.00
67147;DHT22;54061;52.036;5.558;2022-10-28T09:32:23;20.10;95.60
67147;DHT22;54061;52.036;5.558;2022-10-28T09:34:48;20.10;94.20
67147;DHT22;54061;52.036;5.558;2022-10-28T09:37:29;20.10;95.10
67147;DHT22;54061;52.036;5.558;2022-10-28T09:40:01;20.20;97.20
67147;DHT22;54061;52.036;5.558;2022-10-28T09:42:30;20.30;95.80
67147;DHT22;54061;52.036;5.558;2022-10-28T09:45:03;20.10;94.70
67147;DHT22;54061;52.036;5.558;2022-10-28T09:47:41;20.00;96.00
67147;DHT22;54061;52.036;5.558;2022-10-28T09:50:30;19.80;92.10
67147;DHT22;54061;52.036;5.558;2022-10-28T09:55:33;19.60;93.00
67147;DHT22;54061;52.036;5.558;2022-10-28T09:58:01;19.60;96.00
67147;DHT22;54061;52.036;5.558;2022-10-28T10:00:26;19.50;96.00
67147;DHT22;54061;52.036;5.558;2022-10-28T10:02:55;19.60;95.80
67147;DHT22;54061;52.036;5.558;2022-10-28T10:05:25;19.80;94.80
67147;DHT22;54061;52.036;5.558;2022-10-28T10:08:00;20.00;95.40
67147;DHT22;54061;52.036;5.558;2022-10-28T10:10:40;20.20;92.40
67147;DHT22;54061;52.036;5.558;2022-10-28T10:13:10;20.20;94.70
67147;DHT22;54061;52.036;5.558;2022-10-28T10:15:50;20.20;95.00
67147;DHT22;54061;52.036;5.558;2022-10-28T10:18:28;20.40;91.20
67147;DHT22;54061;52.036;5.558;2022-10-28T10:20:56;20.50;90.90
67147;DHT22;54061;52.036;5.558;2022-10-28T10:23:33;20.40;94.00
67147;DHT22;54061;52.036;5.558;2022-10-28T10:26:10;20.40;94.00
67147;DHT22;54061;52.036;5.558;2022-10-28T10:28:58;20.60;91.00
67147;DHT22;54061;52.036;5.558;2022-10-28T10:31:27;20.80;90.70
67147;DHT22;54061;52.036;5.558;2022-10-28T10:33:57;21.00;91.10
67147;DHT22;54061;52.036;5.558;2022-10-28T10:36:24;20.90;91.50
67147;DHT22;54061;52.036;5.558;2022-10-28T10:39:00;20.80;92.80
67147;DHT22;54061;52.036;5.558;2022-10-28T10:41:37;20.60;91.60
67147;DHT22;54061;52.036;5.558;2022-10-28T10:49:25;20.50;93.10
67147;DHT22;54061;52.036;5.558;2022-10-28T10:54:17;20.60;93.10
67147;DHT22;54061;52.036;5.558;2022-10-28T10:56:43;20.50;92.70
67147;DHT22;54061;52.036;5.558;2022-10-28T10:59:23;20.60;92.60
67147;DHT22;54061;52.036;5.558;2022-10-28T11:01:52;20.60;90.80
67147;DHT22;54061;52.036;5.558;2022-10-28T11:04:20;20.70;93.00
67147;DHT22;54061;52.036;5.558;2022-10-28T11:06:55;20.80;92.20
67147;DHT22;54061;52.036;5.558;2022-10-28T11:09:34;20.80;90.70
67147;DHT22;54061;52.036;5.558;2022-10-28T11:12:00;21.00;89.90
67147;DHT22;54061;52.036;5.558;2022-10-28T11:14:30;21.10;92.20
67147;DHT22;54061;52.036;5.558;2022-10-28T11:17:01;21.10;90.40
67147;DHT22;54061;52.036;5.558;2022-10-28T11:22:17;20.90;91.40
67147;DHT22;54061;52.036;5.558;2022-10-28T11:24:59;20.80;90.50
67147;DHT22;54061;52.036;5.558;2022-10-28T11:27:50;20.80;91.80
67147;DHT22;54061;52.036;5.558;2022-10-28T11:30:35;20.70;91.90
67147;DHT22;54061;52.036;5.558;2022-10-28T11:33:17;20.70;90.90
67147;DHT22;54061;52.036;5.558;2022-10-28T11:38:25;20.70;91.50
67147;DHT22;54061;52.036;5.558;2022-10-28T11:43:55;20.70;90.70
67147;DHT22;54061;52.036;5.558;2022-10-28T11:46:35;20.70;90.90
67147;DHT22;54061;52.036;5.558;2022-10-28T11:55:10;20.90;90.00
67147;DHT22;54061;52.036;5.558;2022-10-28T12:05:51;21.10;88.30
67147;DHT22;54061;52.036;5.558;2022-10-28T12:16:21;21.10;90.20
67147;DHT22;54061;52.036;5.558;2022-10-28T12:18:58;21.20;90.20
67147;DHT22;54061;52.036;5.558;2022-10-28T12:21:44;21.20;89.80
67147;DHT22;54061;52.036;5.558;2022-10-28T12:24:18;21.30;87.90
67147;DHT22;54061;52.036;5.558;2022-10-28T12:26:52;21.20;90.30
67147;DHT22;54061;52.036;5.558;2022-10-28T12:29:50;21.20;90.40
67147;DHT22;54061;52.036;5.558;2022-10-28T12:32:21;21.20;84.80
67147;DHT22;54061;52.036;5.558;2022-10-28T12:34:54;21.20;90.00
67147;DHT22;54061;52.036;5.558;2022-10-28T12:37:30;21.20;89.00
67147;DHT22;54061;52.036;5.558;2022-10-28T12:40:17;21.20;89.90
67147;DHT22;54061;52.036;5.558;2022-10-28T12:42:52;21.30;85.90
67147;DHT22;54061;52.036;5.558;2022-10-28T12:45:20;21.30;88.90
67147;DHT22;54061;52.036;5.558;2022-10-28T12:56:36;21.30;88.80
67147;DHT22;54061;52.036;5.558;2022-10-28T12:59:32;21.20;87.40
67147;DHT22;54061;52.036;5.558;2022-10-28T13:02:00;21.20;82.90
67147;DHT22;54061;52.036;5.558;2022-10-28T13:04:27;21.10;88.30
67147;DHT22;54061;52.036;5.558;2022-10-28T13:07:24;21.10;88.90
67147;DHT22;54061;52.036;5.558;2022-10-28T13:10:05;21.10;85.60
67147;DHT22;54061;52.036;5.558;2022-10-28T13:12:47;21.00;88.30
67147;DHT22;54061;52.036;5.558;2022-10-28T13:24:33;20.90;89.70
67147;DHT22;54061;52.036;5.558;2022-10-28T13:27:02;20.90;87.50
67147;DHT22;54061;52.036;5.558;2022-10-28T13:29:31;20.90;90.10
67147;DHT22;54061;52.036;5.558;2022-10-28T13:31:57;20.80;90.00
67147;DHT22;54061;52.036;5.558;2022-10-28T13:34:34;20.80;90.10
67147;DHT22;54061;52.036;5.558;2022-10-28T13:37:03;20.80;89.60
67147;DHT22;54061;52.036;5.558;2022-10-28T13:45:00;20.70;88.40
67147;DHT22;54061;52.036;5.558;2022-10-28T13:47:30;20.70;88.70
67147;DHT22;54061;52.036;5.558;2022-10-28T13:55:22;20.70;90.20
67147;DHT22;54061;52.036;5.558;2022-10-28T13:57:51;20.70;90.10
67147;DHT22;54061;52.036;5.558;2022-10-28T14:02:55;20.60;90.80
67147;DHT22;54061;52.036;5.558;2022-10-28T14:05:26;20.60;90.70
67147;DHT22;54061;52.036;5.558;2022-10-28T14:08:25;20.60;90.80
67147;DHT22;54061;52.036;5.558;2022-10-28T14:11:21;20.60;90.70
67147;DHT22;54061;52.036;5.558;2022-10-28T14:13:49;20.60;90.00
67147;DHT22;54061;52.036;5.558;2022-10-28T14:24:10;20.50;91.10
67147;DHT22;54061;52.036;5.558;2022-10-28T14:40:31;20.50;90.90
67147;DHT22;54061;52.036;5.558;2022-10-28T14:43:12;20.40;91.20
67147;DHT22;54061;52.036;5.558;2022-10-28T14:45:52;20.40;91.30
67147;DHT22;54061;52.036;5.558;2022-10-28T14:48:49;20.40;91.10
67147;DHT22;54061;52.036;5.558;2022-10-28T14:51:23;20.30;91.30
67147;DHT22;54061;52.036;5.558;2022-10-28T14:53:53;20.30;91.70
67147;DHT22;54061;52.036;5.558;2022-10-28T14:56:29;20.30;92.00
67147;DHT22;54061;52.036;5.558;2022-10-28T15:04:27;20.10;91.60
67147;DHT22;54061;52.036;5.558;2022-10-28T15:06:53;20.10;92.50
67147;DHT22;54061;52.036;5.558;2022-10-28T15:09:31;20.10;92.30
67147;DHT22;54061;52.036;5.558;2022-10-28T15:12:04;20.10;92.00
67147;DHT22;54061;52.036;5.558;2022-10-28T15:14:43;20.10;92.40
67147;DHT22;54061;52.036;5.558;2022-10-28T15:19:37;20.00;92.50
67147;DHT22;54061;52.036;5.558;2022-10-28T15:24:40;19.80;92.40
67147;DHT22;54061;52.036;5.558;2022-10-28T15:27:10;19.80;92.90
67147;DHT22;54061;52.036;5.558;2022-10-28T15:29:36;19.80;93.10
67147;DHT22;54061;52.036;5.558;2022-10-28T15:32:10;19.70;93.20
67147;DHT22;54061;52.036;5.558;2022-10-28T15:34:41;19.70;93.20
67147;DHT22;54061;52.036;5.558;2022-10-28T15:37:08;19.80;93.30
67147;DHT22;54061;52.036;5.558;2022-10-28T15:39:34;19.70;93.30
67147;DHT22;54061;52.036;5.558;2022-10-28T15:42:00;19.70;93.40
67147;DHT22;54061;52.036;5.558;2022-10-28T15:44:34;19.60;93.50
67147;DHT22;54061;52.036;5.558;2022-10-28T15:47:12;19.60;93.60
67147;DHT22;54061;52.036;5.558;2022-10-28T15:49:40;19.60;93.60
67147;DHT22;54061;52.036;5.558;2022-10-28T15:57:55;19.50;93.80
67147;DHT22;54061;52.036;5.558;2022-10-28T16:02:55;19.40;94.10
67147;DHT22;54061;52.036;5.558;2022-10-28T16:08:05;19.40;94.40
67147;DHT22;54061;52.036;5.558;2022-10-28T16:10:43;19.40;94.50
67147;DHT22;54061;52.036;5.558;2022-10-28T16:13:20;19.30;94.50
67147;DHT22;54061;52.036;5.558;2022-10-28T16:15:51;19.30;94.60
67147;DHT22;54061;52.036;5.558;2022-10-28T16:18:19;19.30;94.80
67147;DHT22;54061;52.036;5.558;2022-10-28T16:20:44;19.20;94.80
67147;DHT22;54061;52.036;5.558;2022-10-28T16:23:14;19.20;95.00
67147;DHT22;54061;52.036;5.558;2022-10-28T16:25:40;19.20;95.00
67147;DHT22;54061;52.036;5.558;2022-10-28T16:28:23;19.20;95.00
67147;DHT22;54061;52.036;5.558;2022-10-28T16:30:51;19.20;95.00
67147;DHT22;54061;52.036;5.558;2022-10-28T16:33:17;19.20;95.00
67147;DHT22;54061;52.036;5.558;2022-10-28T16:35:43;19.10;95.00
67147;DHT22;54061;52.036;5.558;2022-10-28T16:38:11;19.10;95.10
67147;DHT22;54061;52.036;5.558;2022-10-28T16:40:37;19.10;95.20
67147;DHT22;54061;52.036;5.558;2022-10-28T16:43:03;19.00;95.20
67147;DHT22;54061;52.036;5.558;2022-10-28T16:45:29;19.00;95.30
67147;DHT22;54061;52.036;5.558;2022-10-28T16:47:54;19.00;95.20
67147;DHT22;54061;52.036;5.558;2022-10-28T16:50:20;19.00;95.30
67147;DHT22;54061;52.036;5.558;2022-10-28T16:52:46;19.00;95.30
67147;DHT22;54061;52.036;5.558;2022-10-28T16:55:20;19.00;95.40
67147;DHT22;54061;52.036;5.558;2022-10-28T16:57:46;18.90;95.50
67147;DHT22;54061;52.036;5.558;2022-10-28T17:00:12;18.90;95.60
67147;DHT22;54061;52.036;5.558;2022-10-28T17:02:38;18.90;95.60
67147;DHT22;54061;52.036;5.558;2022-10-28T17:05:04;18.90;95.70
67147;DHT22;54061;52.036;5.558;2022-10-28T17:07:31;18.90;95.70
67147;DHT22;54061;52.036;5.558;2022-10-28T17:09:57;18.90;95.70
67147;DHT22;54061;52.036;5.558;2022-10-28T17:12:26;18.90;95.80
67147;DHT22;54061;52.036;5.558;2022-10-28T17:14:51;18.90;95.80
67147;DHT22;54061;52.036;5.558;2022-10-28T17:17:17;18.90;95.90
67147;DHT22;54061;52.036;5.558;2022-10-28T17:19:42;18.90;96.00
67147;DHT22;54061;52.036;5.558;2022-10-28T17:22:10;18.90;96.00
67147;DHT22;54061;52.036;5.558;2022-10-28T17:24:36;18.90;96.00
67147;DHT22;54061;52.036;5.558;2022-10-28T17:27:02;18.90;96.00
67147;DHT22;54061;52.036;5.558;2022-10-28T17:29:28;18.90;96.00
67147;DHT22;54061;52.036;5.558;2022-10-28T17:31:53;18.90;96.00
67147;DHT22;54061;52.036;5.558;2022-10-28T17:34:19;18.90;96.10
67147;DHT22;54061;52.036;5.558;2022-10-28T17:36:44;18.90;96.00
67147;DHT22;54061;52.036;5.558;2022-10-28T17:39:10;18.90;96.10
67147;DHT22;54061;52.036;5.558;2022-10-28T17:41:35;18.90;96.10
67147;DHT22;54061;52.036;5.558;2022-10-28T17:44:01;18.90;96.20
67147;DHT22;54061;52.036;5.558;2022-10-28T17:46:26;18.90;96.20
67147;DHT22;54061;52.036;5.558;2022-10-28T17:48:53;18.80;96.40
67147;DHT22;54061;52.036;5.558;2022-10-28T17:51:18;18.80;96.60
67147;DHT22;54061;52.036;5.558;2022-10-28T17:53:46;18.60;96.70
67147;DHT22;54061;52.036;5.558;2022-10-28T17:56:12;18.70;96.80
67147;DHT22;54061;52.036;5.558;2022-10-28T17:58:37;18.70;96.80
67147;DHT22;54061;52.036;5.558;2022-10-28T18:01:05;18.60;96.90
67147;DHT22;54061;52.036;5.558;2022-10-28T18:03:31;18.60;96.90
67147;DHT22;54061;52.036;5.558;2022-10-28T18:06:02;18.60;97.00
67147;DHT22;54061;52.036;5.558;2022-10-28T18:08:35;18.50;97.00
67147;DHT22;54061;52.036;5.558;2022-10-28T18:11:04;18.50;97.00
67147;DHT22;54061;52.036;5.558;2022-10-28T18:13:32;18.50;97.10
67147;DHT22;54061;52.036;5.558;2022-10-28T18:16:09;18.50;97.10